Archiv-/Tagesdaten

--Timestamp---	Temp	Chill	HIndex	Humid	Dewpt	Wind	HiWind	WindDir	Rain	Barom	Solar	ET	UV
--------------	----	-----	------	-----	-----	----	------	-------	----	-----	-----	--	--
20071113 00:05	2.1	-1.8	2.1	74	-2.1	14	27	247	0.00	1017.951	0	0.000	0
20071113 00:10	2.0	-1.8	2.0	74	-2.1	14	24	247	0.00	1017.985	0	0.000	0
20071113 00:15	2.0	-2.1	2.0	74	-2.1	16	27	247	0.00	1017.985	0	0.000	0
20071113 00:20	2.1	-2.3	2.1	75	-1.9	18	29	247	0.00	1017.985	0	0.000	0
20071113 00:25	2.1	-2.3	2.1	74	-2.1	18	27	270	0.00	1017.985	0	0.000	0
20071113 00:30	2.1	-2.3	2.1	74	-2.1	18	32	247	0.00	1017.985	0	0.000	0
20071113 00:35	2.1	-2.0	2.1	75	-1.9	16	31	247	0.00	1017.985	0	0.000	0
20071113 00:40	2.1	-2.2	2.1	74	-2.0	18	34	270	0.00	1018.121	0	0.000	0
20071113 00:45	2.2	-2.4	2.2	74	-2.0	19	37	247	0.00	1018.053	0	0.000	0
20071113 00:50	2.1	-2.0	2.1	74	-2.0	16	37	247	0.00	1017.985	0	0.000	0
20071113 00:55	2.1	-2.2	2.1	74	-2.0	18	34	247	0.00	1017.985	0	0.000	0
20071113 01:00	2.1	-1.8	2.1	74	-2.1	14	34	247	0.00	1017.951	0	0.020	0
20071113 01:05	2.1	-1.7	2.1	74	-2.0	14	23	247	0.00	1017.951	0	0.000	0
20071113 01:10	2.1	-1.5	2.1	75	-1.9	13	23	247	0.00	1017.951	0	0.000	0
20071113 01:15	2.1	-1.8	2.1	75	-1.9	14	27	247	0.00	1017.985	0	0.000	0
20071113 01:20	2.1	-2.0	2.1	75	-1.9	16	32	247	0.00	1017.917	0	0.000	0
20071113 01:25	2.1	-1.7	2.1	75	-1.9	14	27	247	0.00	1018.019	0	0.000	0
20071113 01:30	2.1	-2.0	2.1	74	-2.0	16	27	247	0.00	1017.884	0	0.000	0
20071113 01:35	2.2	-1.9	2.2	74	-2.0	16	32	270	0.00	1017.884	0	0.000	0
20071113 01:40	2.2	-1.9	2.2	74	-2.0	16	34	247	0.00	1017.884	0	0.000	0
20071113 01:45	2.1	-1.7	2.1	74	-2.0	14	24	247	0.00	1017.917	0	0.000	0
20071113 01:50	2.1	-2.2	2.1	75	-1.9	18	34	270	0.00	1017.884	0	0.000	0
20071113 01:55	2.1	-2.3	2.1	75	-1.9	18	27	247	0.00	1017.951	0	0.000	0
20071113 02:00	2.0	-1.5	2.0	75	-2.0	13	24	247	0.00	1017.985	0	0.020	0
20071113 02:05	1.9	-1.9	1.9	76	-1.8	14	24	247	0.00	1017.985	0	0.000	0
20071113 02:10	1.9	-2.0	1.9	76	-1.9	14	24	247	0.00	1017.917	0	0.000	0
20071113 02:15	1.9	-2.2	1.9	76	-1.8	16	32	247	0.00	1018.019	0	0.000	0
20071113 02:20	1.9	-2.2	1.9	75	-2.0	16	31	247	0.00	1017.917	0	0.000	0
20071113 02:25	1.9	-2.0	1.9	75	-2.1	14	26	247	0.00	1017.816	0	0.000	0
20071113 02:30	1.8	-2.0	1.8	76	-1.9	14	29	247	0.00	1017.782	0	0.000	0
20071113 02:35	1.8	-2.3	1.8	75	-2.1	16	29	270	0.00	1017.714	0	0.000	0
20071113 02:40	1.9	-2.7	1.9	75	-2.1	19	35	247	0.00	1017.782	0	0.000	0
20071113 02:45	1.9	-2.0	1.9	75	-2.1	14	29	247	0.00	1017.850	0	0.000	0
20071113 02:50	1.8	-2.3	1.8	75	-2.1	16	29	247	0.00	1017.782	0	0.000	0
20071113 02:55	1.8	-2.1	1.8	76	-2.0	14	32	247	0.00	1017.816	0	0.000	0
20071113 03:00	1.7	-2.2	1.7	75	-2.2	14	27	247	0.00	1017.748	0	0.020	0
20071113 03:05	1.7	-1.9	1.7	76	-2.0	13	26	247	0.00	1017.782	0	0.000	0
20071113 03:10	1.7	-2.3	1.7	76	-2.1	14	27	247	0.00	1017.748	0	0.000	0
20071113 03:15	1.7	-2.3	1.7	76	-2.1	14	27	247	0.00	1017.782	0	0.000	0
20071113 03:20	1.7	-1.9	1.7	76	-2.1	13	29	247	0.00	1017.951	0	0.000	0
20071113 03:25	1.6	-1.7	1.6	76	-2.2	11	21	247	0.00	1017.985	0	0.000	0
20071113 03:30	1.6	-2.0	1.6	76	-2.2	13	26	247	0.00	1017.850	0	0.000	0
20071113 03:35	1.6	-2.0	1.6	76	-2.2	13	26	247	0.00	1017.782	0	0.000	0
20071113 03:40	1.6	-2.6	1.6	75	-2.3	16	27	247	0.00	1017.850	0	0.000	0
20071113 03:45	1.7	-2.3	1.7	75	-2.3	14	31	247	0.00	1017.850	0	0.000	0
20071113 03:50	1.6	-2.3	1.6	76	-2.2	14	24	247	0.00	1017.951	0	0.000	0
20071113 03:55	1.6	-2.3	1.6	76	-2.2	14	27	247	0.00	1017.917	0	0.000	0
20071113 04:00	1.6	-2.4	1.6	76	-2.2	14	29	247	0.00	1017.917	0	0.020	0
20071113 04:05	1.4	-1.9	1.4	77	-2.1	11	21	247	0.00	1017.850	0	0.000	0
20071113 04:10	1.3	-2.4	1.3	77	-2.3	13	24	247	0.00	1017.884	0	0.000	0
20071113 04:15	1.3	-2.4	1.3	77	-2.3	13	29	247	0.00	1017.985	0	0.000	0
20071113 04:20	1.3	-2.0	1.3	77	-2.3	11	29	247	0.00	1018.019	0	0.000	0
20071113 04:25	1.3	-2.0	1.3	78	-2.1	11	27	270	0.00	1017.951	0	0.000	0
20071113 04:30	1.3	-2.4	1.3	78	-2.1	13	26	247	0.00	1017.850	0	0.000	0
20071113 04:35	1.3	-2.4	1.3	78	-2.1	13	26	247	0.00	1017.884	0	0.000	0
20071113 04:40	1.2	-2.5	1.2	78	-2.2	13	29	247	0.00	1017.917	0	0.000	0
20071113 04:45	1.3	-2.1	1.3	78	-2.1	11	23	247	0.00	1017.951	0	0.000	0
20071113 04:50	1.3	-2.7	1.3	77	-2.3	14	27	247	0.00	1017.850	0	0.000	0
20071113 04:55	1.3	-2.7	1.3	77	-2.3	14	27	247	0.00	1017.951	0	0.000	0
20071113 05:00	1.3	-2.7	1.3	77	-2.3	14	27	247	0.00	1017.951	0	0.020	0
20071113 05:05	1.3	-2.9	1.3	77	-2.3	16	27	247	0.00	1017.816	0	0.000	0
20071113 05:10	1.4	-2.6	1.4	77	-2.2	14	31	247	0.00	1017.850	0	0.000	0
20071113 05:15	1.4	-2.6	1.4	77	-2.2	14	29	247	0.00	1017.850	0	0.000	0
20071113 05:20	1.4	-2.3	1.4	78	-2.0	13	23	247	0.00	1017.748	0	0.000	0
20071113 05:25	1.3	-2.9	1.3	78	-2.1	16	31	247	0.00	1017.680	0	0.000	0
20071113 05:30	1.3	-2.9	1.3	78	-2.1	16	29	247	0.00	1017.579	0	0.000	0
20071113 05:35	1.3	-2.9	1.3	78	-2.1	16	29	247	0.00	1017.579	0	0.000	0
20071113 05:40	1.3	-2.9	1.3	79	-1.9	16	31	247	0.00	1017.613	0	0.000	0
20071113 05:45	1.3	-2.4	1.3	79	-1.9	13	26	247	0.00	1017.613	0	0.000	0
20071113 05:50	1.3	-2.4	1.3	78	-2.1	13	27	247	0.00	1017.680	0	0.000	0
20071113 05:55	1.3	-2.7	1.3	79	-1.9	14	26	247	0.00	1017.748	0	0.000	0
20071113 06:00	1.3	-2.7	1.3	78	-2.1	14	26	247	0.00	1017.782	0	0.020	0
20071113 06:05	1.3	-2.9	1.3	78	-2.1	16	26	247	0.00	1017.714	0	0.000	0
20071113 06:10	1.3	-2.4	1.3	79	-1.9	13	32	247	0.00	1017.613	0	0.000	0
20071113 06:15	1.3	-2.7	1.3	79	-1.9	14	26	247	0.00	1017.680	0	0.000	0
20071113 06:20	1.3	-2.7	1.3	79	-2.0	14	26	247	0.00	1017.613	0	0.000	0
20071113 06:25	1.3	-2.4	1.3	79	-1.9	13	26	270	0.00	1017.647	0	0.000	0
20071113 06:30	1.3	-2.7	1.3	79	-1.9	14	27	247	0.00	1017.613	0	0.000	0
20071113 06:35	1.3	-2.1	1.3	79	-2.0	11	26	247	0.00	1017.647	0	0.000	0
20071113 06:40	1.3	-2.4	1.3	79	-2.0	13	27	247	0.00	1017.714	0	0.000	0
20071113 06:45	1.3	-2.9	1.3	79	-1.9	16	26	247	0.00	1017.714	0	0.000	0
20071113 06:50	1.3	-2.7	1.3	79	-1.9	14	27	247	0.00	1017.714	0	0.000	0
20071113 06:55	1.3	-2.9	1.3	79	-1.9	16	29	247	0.00	1017.714	0	0.000	0
20071113 07:00	1.3	-2.0	1.3	79	-1.9	11	24	247	0.00	1017.680	0	0.020	0
20071113 07:05	1.3	-2.7	1.3	79	-2.0	14	26	247	0.00	1017.545	0	0.000	0
20071113 07:10	1.3	-2.4	1.3	79	-2.0	13	24	247	0.00	1017.477	0	0.000	0
20071113 07:15	1.2	-2.8	1.2	79	-2.0	14	27	247	0.00	1017.477	0	0.000	0
20071113 07:20	1.2	-2.5	1.2	79	-2.0	13	27	247	0.00	1017.409	0	0.000	0
20071113 07:25	1.2	-2.6	1.2	79	-2.1	13	21	247	0.00	1017.409	0	0.000	0
20071113 07:30	1.2	-2.6	1.2	79	-2.1	13	24	270	0.00	1017.376	6	0.000	0
20071113 07:35	1.2	-2.5	1.2	79	-2.0	13	26	247	0.00	1017.443	8	0.000	0
20071113 07:40	1.2	-2.2	1.2	79	-2.1	11	21	270	0.00	1017.409	11	0.000	0
20071113 07:45	1.1	-1.9	1.1	79	-2.1	10	24	247	0.00	1017.477	14	0.000	0
20071113 07:50	1.1	-1.9	1.1	79	-2.1	10	23	247	0.00	1017.477	20	0.000	0
20071113 07:55	1.2	-1.8	1.2	79	-2.1	10	26	247	0.00	1017.545	26	0.000	0
20071113 08:00	1.2	-1.7	1.2	78	-2.2	10	21	247	0.00	1017.579	32	0.020	0
20071113 08:05	1.3	-2.4	1.3	78	-2.1	13	29	247	0.00	1017.714	40	0.000	0
20071113 08:10	1.3	-1.6	1.3	78	-2.1	10	19	247	0.00	1017.680	47	0.000	0
20071113 08:15	1.3	-1.6	1.3	78	-2.1	10	21	247	0.00	1017.647	52	0.000	0
20071113 08:20	1.3	-2.0	1.3	77	-2.3	11	23	247	0.00	1017.579	48	0.000	0
20071113 08:25	1.4	-1.6	1.4	77	-2.2	10	23	270	0.00	1017.613	40	0.000	0
20071113 08:30	1.3	-2.0	1.3	78	-2.1	11	23	247	0.00	1017.647	39	0.000	0
20071113 08:35	1.4	-1.9	1.4	77	-2.2	11	24	247	0.00	1017.647	41	0.000	0
20071113 08:40	1.4	-2.2	1.4	77	-2.1	13	24	247	0.00	1017.748	50	0.000	0
20071113 08:45	1.5	-1.8	1.5	76	-2.3	11	24	247	0.00	1017.850	58	0.000	0
20071113 08:50	1.6	-1.3	1.6	76	-2.2	10	19	247	0.00	1017.816	73	0.000	0
20071113 08:55	1.8	-1.1	1.8	75	-2.2	10	21	247	0.00	1017.884	79	0.000	0
20071113 09:00	1.9	-0.5	1.9	75	-2.1	8	23	247	0.00	1017.884	95	0.040	0
20071113 09:05	2.0	-0.8	2.0	75	-2.0	10	21	247	0.00	1017.714	113	0.000	0
20071113 09:10	2.2	-0.6	2.2	74	-1.9	10	19	247	0.00	1017.647	149	0.000	0
20071113 09:15	2.5	-0.9	2.5	72	-2.0	13	26	247	0.00	1017.511	132	0.000	0
20071113 09:20	2.6	-1.2	2.6	73	-1.8	14	24	247	0.00	1017.477	105	0.000	0
20071113 09:25	2.6	-0.9	2.6	72	-2.0	13	27	247	0.00	1017.409	121	0.000	0
20071113 09:30	2.7	-1.0	2.7	72	-1.8	14	27	247	0.00	1017.308	129	0.000	0
20071113 09:35	2.8	-0.9	2.8	71	-2.0	14	34	247	0.00	1017.409	91	0.000	0
20071113 09:40	2.8	-0.9	2.8	72	-1.8	14	26	247	0.00	1017.545	105	0.000	0
20071113 09:45	2.8	-0.5	2.8	72	-1.7	13	26	247	0.00	1017.409	117	0.000	0
20071113 09:50	2.8	-0.5	2.8	71	-1.9	13	26	247	0.00	1017.308	99	0.000	1
20071113 09:55	2.8	-0.5	2.8	72	-1.7	13	26	247	0.00	1017.477	142	0.000	1
20071113 10:00	2.9	-0.1	2.9	72	-1.7	11	23	270	0.00	1017.409	141	0.060	1
20071113 10:05	3.0	0.4	3.0	72	-1.5	10	19	247	0.00	1017.376	135	0.000	1
20071113 10:10	3.1	-0.3	3.1	71	-1.7	13	24	247	0.00	1017.240	135	0.000	1
20071113 10:15	3.1	0.1	3.1	72	-1.5	11	26	270	0.00	1017.274	144	0.000	1
20071113 10:20	3.0	0.0	3.0	72	-1.5	11	21	247	0.00	1017.342	127	0.000	1
20071113 10:25	2.9	-0.1	2.9	72	-1.6	11	27	270	0.00	1017.342	111	0.000	0
20071113 10:30	2.8	-1.1	2.8	73	-1.5	16	34	247	0.00	1017.274	80	0.000	0
20071113 10:35	2.8	0.1	2.8	74	-1.4	10	24	247	0.00	1017.240	49	0.000	0
20071113 10:40	2.7	-0.0	2.7	75	-1.3	10	24	270	0.00	1017.206	71	0.000	0
20071113 10:45	2.7	-0.7	2.7	75	-1.3	13	24	247	0.00	1017.206	89	0.000	0
20071113 10:50	2.8	-0.3	2.8	75	-1.2	11	24	247	0.00	1017.206	83	0.000	0
20071113 10:55	2.7	-1.0	2.7	74	-1.4	14	31	247	0.00	1017.206	63	0.000	0
20071113 11:00	2.7	-1.0	2.7	75	-1.3	14	31	247	0.00	1017.071	146	0.060	1
20071113 11:05	2.7	-0.7	2.7	76	-1.1	13	29	247	0.00	1017.071	88	0.000	0
20071113 11:10	2.8	-0.9	2.8	75	-1.2	14	27	247	0.00	1016.969	111	0.000	0
20071113 11:15	2.8	-0.6	2.8	75	-1.2	13	27	247	0.00	1016.901	85	0.000	0
20071113 11:20	2.8	-0.3	2.8	75	-1.2	11	24	247	0.00	1016.766	66	0.000	0
20071113 11:25	2.8	-0.5	2.8	75	-1.2	13	24	247	0.00	1016.698	110	0.000	0
20071113 11:30	2.9	-0.1	2.9	75	-1.0	11	26	247	0.00	1016.631	105	0.000	1
20071113 11:35	2.9	-0.7	2.9	75	-1.1	14	27	247	0.00	1016.529	104	0.000	1
20071113 11:40	2.9	-0.7	2.9	75	-1.1	14	29	247	0.00	1016.427	89	0.000	0
20071113 11:45	2.8	-0.5	2.8	75	-1.2	13	24	247	0.00	1016.360	107	0.000	1
20071113 11:50	2.7	-0.7	2.7	77	-0.9	13	26	247	0.00	1016.326	118	0.000	1
20071113 11:55	2.7	-0.7	2.7	78	-0.8	13	23	247	0.00	1016.258	117	0.000	1
20071113 12:00	2.6	-0.5	2.6	78	-0.8	11	24	247	0.00	1016.292	74	0.040	0
20071113 12:05	2.4	-0.4	2.4	81	-0.5	10	18	247	0.00	1016.258	58	0.000	0
20071113 12:10	2.2	-0.6	2.2	80	-0.9	10	24	247	0.00	1016.156	86	0.000	0
20071113 12:15	2.3	-1.1	2.3	80	-0.8	13	26	247	0.00	1016.123	119	0.000	0
20071113 12:20	2.6	-0.2	2.6	80	-0.5	10	19	247	0.00	1015.987	169	0.000	1
20071113 12:25	2.8	-0.3	2.8	79	-0.5	11	24	270	0.00	1015.987	122	0.000	0
20071113 12:30	2.9	-0.5	2.9	78	-0.6	13	31	270	0.00	1015.852	123	0.000	0
20071113 12:35	2.9	-0.7	2.9	76	-0.9	14	29	247	0.00	1015.682	83	0.000	0
20071113 12:40	2.9	-0.5	2.9	77	-0.7	13	26	247	0.00	1015.716	100	0.000	1
20071113 12:45	2.9	-0.4	2.9	76	-0.9	13	24	247	0.00	1015.682	85	0.000	0
20071113 12:50	2.9	-0.9	2.9	76	-0.9	16	31	247	0.00	1015.615	86	0.000	0
20071113 12:55	2.9	-1.3	2.9	75	-1.1	18	34	247	0.00	1015.547	112	0.000	1
20071113 13:00	2.9	-0.9	2.9	76	-0.9	16	32	270	0.00	1015.581	123	0.040	0
20071113 13:05	2.9	-1.0	2.9	77	-0.7	16	26	270	0.00	1015.513	106	0.000	0
20071113 13:10	2.8	-0.8	2.8	77	-0.8	14	31	247	0.00	1015.445	93	0.000	0
20071113 13:15	2.8	-1.1	2.8	77	-0.8	16	29	270	0.00	1015.445	83	0.000	0
20071113 13:20	2.8	-1.1	2.8	77	-0.8	16	29	270	0.00	1015.378	80	0.000	0
20071113 13:25	2.8	-1.2	2.8	76	-1.0	16	29	247	0.00	1015.344	61	0.000	0
20071113 13:30	2.7	-1.5	2.7	76	-1.1	18	37	247	0.00	1015.378	61	0.000	0
20071113 13:35	2.7	-1.8	2.7	76	-1.1	19	37	247	0.00	1015.276	68	0.000	0
20071113 13:40	2.6	-1.1	2.6	77	-1.0	14	26	247	0.00	1015.276	64	0.000	0
20071113 13:45	2.6	-1.2	2.6	77	-1.1	14	29	270	0.00	1015.174	108	0.000	0
20071113 13:50	2.6	-1.4	2.6	78	-0.9	16	32	247	0.00	1015.107	149	0.000	0
20071113 13:55	2.6	-0.9	2.6	79	-0.7	13	24	247	0.00	1015.073	99	0.000	0
20071113 14:00	2.5	-0.9	2.5	78	-0.9	13	31	247	0.00	1015.073	57	0.040	0
20071113 14:05	2.4	-1.0	2.4	77	-1.2	13	26	270	0.00	1015.107	52	0.000	0
20071113 14:10	2.4	-0.4	2.4	78	-1.1	10	23	270	0.00	1015.073	49	0.000	0
20071113 14:15	2.4	-0.4	2.4	78	-1.1	10	23	247	0.00	1014.937	46	0.000	0
20071113 14:20	2.4	-0.7	2.4	78	-1.1	11	26	247	0.00	1014.937	62	0.000	0
20071113 14:25	2.4	-1.0	2.4	77	-1.2	13	27	247	0.00	1014.802	55	0.000	0
20071113 14:30	2.4	-0.3	2.4	78	-1.0	10	21	247	0.00	1014.802	47	0.000	0
20071113 14:35	2.5	-0.6	2.5	78	-0.9	11	24	247	0.00	1014.565	75	0.000	0
20071113 14:40	2.6	-0.5	2.6	77	-1.0	11	21	247	0.00	1014.463	79	0.000	0
20071113 14:45	2.7	-0.4	2.7	77	-1.0	11	23	247	0.00	1014.396	59	0.000	0
20071113 14:50	2.7	-0.3	2.7	76	-1.1	11	24	247	0.00	1014.260	106	0.000	0
20071113 14:55	2.9	0.7	2.9	76	-0.9	8	19	247	0.00	1014.159	106	0.000	0
20071113 15:00	2.9	0.3	2.9	76	-0.9	10	18	247	0.00	1014.192	91	0.040	0
20071113 15:05	2.9	-0.1	2.9	75	-1.0	11	21	270	0.00	1014.091	66	0.000	0
20071113 15:10	2.9	-0.1	2.9	75	-1.1	11	23	270	0.00	1014.091	24	0.000	0
20071113 15:15	2.7	0.5	2.7	77	-0.9	8	19	247	0.00	1013.955	45	0.000	0
20071113 15:20	2.7	0.4	2.7	77	-1.0	8	18	270	0.00	1013.888	49	0.000	0
20071113 15:25	2.7	-0.4	2.7	75	-1.3	11	23	247	0.00	1013.820	39	0.000	0
20071113 15:30	2.7	-0.4	2.7	76	-1.1	11	27	247	0.00	1013.854	34	0.000	0
20071113 15:35	2.6	-0.1	2.6	77	-1.0	10	18	247	0.00	1013.718	32	0.000	0
20071113 15:40	2.6	-0.5	2.6	76	-1.2	11	21	247	0.00	1013.583	31	0.000	0
20071113 15:45	2.5	-0.2	2.5	75	-1.5	10	21	270	0.00	1013.515	33	0.000	0
20071113 15:50	2.6	-0.2	2.6	75	-1.4	10	19	247	0.00	1013.380	37	0.000	0
20071113 15:55	2.6	0.3	2.6	75	-1.4	8	19	247	0.00	1013.177	40	0.000	0
20071113 16:00	2.6	-0.1	2.6	74	-1.6	10	21	247	0.00	1013.109	36	0.020	0
20071113 16:05	2.7	0.9	2.7	74	-1.5	6	14	247	0.00	1013.210	28	0.000	0
20071113 16:10	2.7	0.9	2.7	74	-1.5	6	16	247	0.00	1013.075	22	0.000	0
20071113 16:15	2.7	0.9	2.7	74	-1.5	6	16	247	0.00	1012.906	18	0.000	0
20071113 16:20	2.7	0.9	2.7	74	-1.5	6	11	247	0.00	1012.872	14	0.000	0
20071113 16:25	2.6	2.6	2.6	74	-1.6	3	8	247	0.00	1012.770	5	0.000	0
20071113 16:30	2.6	2.6	2.6	74	-1.6	5	11	247	0.00	1012.567	0	0.000	0
20071113 16:35	2.5	2.5	2.5	73	-1.8	5	10	225	0.00	1012.533	0	0.000	0
20071113 16:40	2.5	2.5	2.5	73	-1.8	5	14	247	0.00	1012.465	0	0.000	0
20071113 16:45	2.4	2.4	2.4	73	-1.9	5	11	247	0.00	1012.398	0	0.000	0
20071113 16:50	2.4	2.4	2.4	73	-1.9	5	13	247	0.00	1012.330	0	0.000	0
20071113 16:55	2.4	2.4	2.4	72	-2.1	5	13	247	0.00	1012.296	0	0.000	0
20071113 17:00	2.4	2.4	2.4	73	-2.0	5	10	247	0.00	1012.194	0	0.020	0
20071113 17:05	2.4	2.4	2.4	72	-2.1	5	11	247	0.00	1012.093	0	0.000	0
20071113 17:10	2.4	2.4	2.4	72	-2.1	5	14	247	0.00	1011.991	0	0.000	0
20071113 17:15	2.4	2.4	2.4	72	-2.1	5	8	247	0.00	1011.890	0	0.000	0
20071113 17:20	2.4	2.4	2.4	72	-2.1	3	8	225	0.00	1011.754	0	0.000	0
20071113 17:25	2.4	2.4	2.4	71	-2.3	5	11	225	0.00	1011.686	0	0.000	0
20071113 17:30	2.5	2.5	2.5	71	-2.2	5	10	247	0.00	1011.517	0	0.000	0
20071113 17:35	2.5	2.5	2.5	70	-2.4	5	11	270	0.00	1011.449	0	0.000	0
20071113 17:40	2.5	2.5	2.5	71	-2.2	5	11	247	0.00	1011.348	0	0.000	0
20071113 17:45	2.5	2.5	2.5	71	-2.2	5	10	247	0.00	1011.280	0	0.000	0
20071113 17:50	2.4	2.4	2.4	70	-2.5	5	10	247	0.00	1011.382	0	0.000	0
20071113 17:55	2.4	2.4	2.4	70	-2.5	5	14	247	0.00	1011.246	0	0.000	0
20071113 18:00	2.4	2.4	2.4	70	-2.5	5	11	270	0.00	1011.246	0	0.020	0
20071113 18:05	2.4	2.4	2.4	70	-2.5	5	10	247	0.00	1011.179	0	0.000	0
20071113 18:10	2.4	2.4	2.4	70	-2.5	5	11	247	0.00	1011.145	0	0.000	0
20071113 18:15	2.4	2.4	2.4	70	-2.5	5	10	247	0.00	1011.077	0	0.000	0
20071113 18:20	2.4	2.4	2.4	70	-2.5	3	8	247	0.00	1011.009	0	0.000	0
20071113 18:25	2.4	2.4	2.4	69	-2.7	3	8	247	0.00	1010.975	0	0.000	0
20071113 18:30	2.4	2.4	2.4	69	-2.7	3	8	225	0.00	1010.975	0	0.000	0
20071113 18:35	2.4	2.4	2.4	68	-2.9	3	10	247	0.00	1010.941	0	0.000	0
20071113 18:40	2.4	2.4	2.4	68	-2.9	3	6	247	0.00	1010.772	0	0.000	0
20071113 18:45	2.4	2.4	2.4	68	-2.9	2	10	247	0.00	1010.569	0	0.000	0
20071113 18:50	2.4	2.4	2.4	68	-2.9	3	8	225	0.00	1010.501	0	0.000	0
20071113 18:55	2.4	2.4	2.4	68	-2.9	3	6	225	0.00	1010.400	0	0.000	0
20071113 19:00	2.4	2.4	2.4	67	-3.1	3	10	225	0.00	1010.264	0	0.020	0
20071113 19:05	2.5	2.5	2.5	67	-3.0	3	6	247	0.00	1010.095	0	0.000	0
20071113 19:10	2.5	2.5	2.5	67	-3.0	2	8	270	0.00	1009.993	0	0.000	0
20071113 19:15	2.5	2.5	2.5	67	-3.0	2	6	247	0.00	1009.790	0	0.000	0
20071113 19:20	2.4	2.4	2.4	67	-3.1	3	10	225	0.00	1009.621	0	0.000	0
20071113 19:25	2.4	2.4	2.4	67	-3.1	2	8	225	0.00	1009.384	0	0.000	0
20071113 19:30	2.4	2.4	2.4	67	-3.1	3	11	247	0.00	1009.316	0	0.000	0
20071113 19:35	2.4	2.4	2.4	68	-2.9	3	8	247	0.00	1009.214	0	0.000	0
20071113 19:40	2.4	2.4	2.4	68	-2.9	2	8	202	0.00	1009.113	0	0.000	0
20071113 19:45	2.3	2.3	2.3	68	-3.0	3	8	202	0.00	1009.181	0	0.000	0
20071113 19:50	2.3	2.3	2.3	68	-3.0	3	8	225	0.00	1009.147	0	0.000	0
20071113 19:55	2.3	2.3	2.3	68	-3.0	5	10	225	0.00	1009.045	0	0.000	0
20071113 20:00	2.4	2.4	2.4	67	-3.1	3	10	225	0.00	1008.774	0	0.020	0
20071113 20:05	2.5	2.5	2.5	67	-3.0	3	10	225	0.00	1008.740	0	0.000	0
20071113 20:10	2.5	2.5	2.5	68	-2.8	3	10	225	0.00	1008.571	0	0.000	0
20071113 20:15	2.4	2.4	2.4	67	-3.1	3	8	225	0.00	1008.503	0	0.000	0
20071113 20:20	2.4	2.4	2.4	68	-2.9	3	14	225	0.00	1008.673	0	0.000	0
20071113 20:25	2.2	2.2	2.2	71	-2.5	3	10	225	0.00	1008.605	0	0.000	0
20071113 20:30	2.1	2.1	2.1	69	-3.0	5	19	247	0.00	1008.605	0	0.000	0
20071113 20:35	2.4	0.6	2.4	67	-3.1	6	23	247	0.00	1008.639	0	0.000	0
20071113 20:40	2.5	-0.2	2.5	69	-2.6	10	24	247	0.00	1008.368	0	0.000	0
20071113 20:45	2.4	0.1	2.4	69	-2.7	8	27	247	0.00	1008.300	0	0.000	0
20071113 20:50	2.4	0.1	2.4	69	-2.7	8	19	247	0.00	1008.097	0	0.000	0
20071113 20:55	2.3	0.0	2.3	69	-2.8	8	18	247	0.00	1008.131	0	0.000	0
20071113 21:00	2.3	0.5	2.3	69	-2.8	6	11	247	0.00	1008.097	0	0.020	0
20071113 21:05	2.4	2.4	2.4	67	-3.1	5	16	247	0.00	1007.961	0	0.000	0
20071113 21:10	2.4	0.6	2.4	68	-2.9	6	16	247	0.00	1007.792	0	0.000	0
20071113 21:15	2.3	2.3	2.3	69	-2.8	5	16	247	0.00	1007.724	0	0.000	0
20071113 21:20	2.3	2.3	2.3	69	-2.8	3	8	270	0.00	1007.724	0	0.000	0
20071113 21:25	2.3	2.3	2.3	71	-2.4	5	18	270	0.00	1007.826	0	0.000	0
20071113 21:30	2.3	-0.9	2.3	69	-2.8	11	32	247	0.00	1007.758	0	0.000	0
20071113 21:35	2.3	-0.1	2.3	71	-2.4	8	26	247	0.00	1007.758	0	0.000	0
20071113 21:40	2.2	-0.6	2.2	72	-2.4	10	26	247	0.00	1007.792	0	0.000	0
20071113 21:45	1.9	-1.9	1.9	74	-2.2	14	23	247	0.00	1007.690	0	0.000	0
20071113 21:50	1.7	-1.2	1.7	76	-2.0	10	21	270	0.00	1007.555	0	0.000	0
20071113 21:55	1.4	-1.0	1.4	78	-2.0	8	21	270	0.00	1007.420	0	0.000	0
20071113 22:00	1.3	-0.6	1.3	79	-1.9	6	11	247	0.00	1007.420	0	0.020	0
20071113 22:05	1.3	1.3	1.3	79	-1.9	3	8	270	0.00	1007.284	0	0.000	0
20071113 22:10	1.3	1.3	1.3	80	-1.7	3	6	270	0.00	1007.149	0	0.000	0
20071113 22:15	1.3	1.3	1.3	78	-2.1	3	8	225	0.00	1007.183	0	0.000	0
20071113 22:20	1.3	1.3	1.3	78	-2.1	3	10	247	0.00	1007.216	0	0.000	0
20071113 22:25	1.3	-0.6	1.3	78	-2.1	6	16	247	0.00	1007.149	0	0.000	0
20071113 22:30	1.3	-1.2	1.3	78	-2.1	8	16	247	0.00	1007.013	0	0.000	0
20071113 22:35	1.3	-1.2	1.3	79	-1.9	8	21	247	0.00	1006.945	0	0.000	0
20071113 22:40	1.3	-1.7	1.3	81	-1.6	10	24	247	0.00	1006.878	0	0.000	0
20071113 22:45	1.1	-1.5	1.1	82	-1.7	8	18	247	0.00	1006.810	0	0.000	0
20071113 22:50	0.9	-1.7	0.9	84	-1.5	8	18	225	0.00	1006.675	0	0.000	0
20071113 22:55	0.7	-1.4	0.7	86	-1.4	6	14	247	0.00	1006.641	0	0.000	0
20071113 23:00	0.5	-1.6	0.5	87	-1.4	6	18	247	0.00	1006.539	0	0.020	0
20071113 23:05	0.3	0.3	0.3	89	-1.3	5	11	247	0.00	1006.471	0	0.000	0
20071113 23:10	0.2	0.2	0.2	89	-1.4	3	11	225	0.00	1006.438	0	0.000	0
20071113 23:15	0.1	0.1	0.1	90	-1.3	3	8	225	0.00	1006.370	0	0.000	0
20071113 23:20	0.1	0.1	0.1	91	-1.2	3	10	225	0.00	1006.234	0	0.000	0
20071113 23:25	0.0	0.0	0.0	91	-1.3	5	11	225	0.00	1006.133	0	0.000	0
20071113 23:30	-0.1	-0.1	-0.1	91	-1.3	5	11	225	0.00	1006.031	0	0.000	0
20071113 23:35	-0.1	-0.1	-0.1	91	-1.3	5	11	225	0.00	1005.997	0	0.000	0
20071113 23:40	-0.1	-0.1	-0.1	92	-1.2	2	8	247	0.00	1005.862	0	0.000	0
20071113 23:45	-0.1	-0.1	-0.1	92	-1.2	3	6	202	0.00	1005.760	0	0.000	0
20071113 23:50	-0.1	-0.1	-0.1	92	-1.2	3	10	202	0.00	1005.557	0	0.000	0
20071113 23:55	-0.1	-0.1	-0.1	92	-1.3	3	11	202	0.00	1005.489	0	0.000	0
20071113 24:00	-0.1	-0.1	-0.1	92	-1.3	5	10	202	0.00	1005.320	0	0.000	0



Please note the license to use and transfer of this data:
http://creativecommons.org/licenses/by-nc-sa/3.0/deed.en

Bitte beachten sie die Lizenz zur Verwertung und Weitergabe der Daten:
http://creativecommons.org/licenses/by-nc-sa/3.0/deed.de

zurück zur Übersicht der Archivdaten (Monats und Tagesdaten)

Cookies helfen bei der Bereitstellung von Inhalten. Durch die Nutzung dieser Seiten erklärst du dich damit einverstanden, dass Cookies auf deinem Rechner gespeichert werden. Weitere Information